createdAt,value
2022-12-18T00:02:34.008Z,9.08
2022-12-18T00:07:33.778Z,9.13
2022-12-18T00:12:33.747Z,9.13
2022-12-18T00:17:33.712Z,8.92
2022-12-18T00:22:33.668Z,8.97
2022-12-18T00:27:33.646Z,9.08
2022-12-18T00:32:33.607Z,9.08
2022-12-18T00:37:33.568Z,9.08
2022-12-18T00:42:33.533Z,9.13
2022-12-18T00:47:33.510Z,9.13
2022-12-18T00:52:33.481Z,9.02
2022-12-18T00:57:33.457Z,9.02
2022-12-18T01:02:33.546Z,8.86
2022-12-18T01:07:33.379Z,9.13
2022-12-18T01:12:33.371Z,8.92
2022-12-18T01:17:33.331Z,8.97
2022-12-18T01:22:33.288Z,8.92
2022-12-18T01:27:33.257Z,9.08
2022-12-18T01:32:33.225Z,9.08
2022-12-18T01:37:33.173Z,8.92
2022-12-18T01:42:33.125Z,8.97
2022-12-18T01:47:33.084Z,9.02
2022-12-18T01:52:33.054Z,8.92
2022-12-18T01:57:33.027Z,9.02
2022-12-18T02:02:33.101Z,9.08
2022-12-18T02:07:32.979Z,8.86
2022-12-18T02:12:32.947Z,8.92
2022-12-18T02:17:32.934Z,8.92
2022-12-18T02:22:32.905Z,8.92
2022-12-18T02:27:32.863Z,8.97
2022-12-18T02:32:32.865Z,9.08
2022-12-18T02:37:32.828Z,8.97
2022-12-18T02:42:32.809Z,8.97
2022-12-18T02:47:32.784Z,8.97
2022-12-18T02:52:32.751Z,8.97
2022-12-18T02:57:32.721Z,8.92
2022-12-18T03:02:32.907Z,9.08
2022-12-18T03:07:32.664Z,8.92
2022-12-18T03:12:32.654Z,9.13
2022-12-18T03:17:32.603Z,8.92
2022-12-18T03:22:32.573Z,8.92
2022-12-18T03:27:32.533Z,9.02
2022-12-18T03:32:32.498Z,8.97
2022-12-18T03:37:32.467Z,8.92
2022-12-18T03:42:32.432Z,9.02
2022-12-18T03:47:32.416Z,9.02
2022-12-18T03:52:32.378Z,9.02
2022-12-18T03:57:32.349Z,8.92
2022-12-18T04:02:32.502Z,8.92
2022-12-18T04:07:32.281Z,8.75
2022-12-18T04:12:32.240Z,9.02
2022-12-18T04:17:32.210Z,8.92
2022-12-18T04:22:32.186Z,8.92
2022-12-18T04:27:32.156Z,8.97
2022-12-18T04:32:32.125Z,8.92
2022-12-18T04:37:32.101Z,8.92
2022-12-18T04:42:32.067Z,9.08
2022-12-18T04:47:32.037Z,9.02
2022-12-18T04:52:32.005Z,9.02
2022-12-18T04:57:31.980Z,8.75
2022-12-18T05:02:32.041Z,9.08
2022-12-18T05:07:31.927Z,8.92
2022-12-18T05:12:31.915Z,9.08
2022-12-18T05:17:31.876Z,9.02
2022-12-18T05:22:31.843Z,8.92
2022-12-18T05:27:31.824Z,8.86
2022-12-18T05:32:31.806Z,8.92
2022-12-18T05:37:31.782Z,8.97
2022-12-18T05:42:31.775Z,8.86
2022-12-18T05:47:31.738Z,8.86
2022-12-18T05:52:31.719Z,8.70
2022-12-18T05:57:31.696Z,9.08
2022-12-18T06:02:31.764Z,8.92
2022-12-18T06:07:31.655Z,8.75
2022-12-18T06:12:31.641Z,8.86
2022-12-18T06:17:31.637Z,9.02
2022-12-18T06:22:31.649Z,9.02
2022-12-18T06:27:32.442Z,8.92
2022-12-18T06:32:31.563Z,8.86
2022-12-18T06:37:34.540Z,8.86
2022-12-18T06:42:31.552Z,8.97
2022-12-18T06:47:31.534Z,8.70
2022-12-18T06:52:31.520Z,8.86
2022-12-18T06:57:31.608Z,8.97
2022-12-18T07:02:33.550Z,9.02
2022-12-18T07:07:31.479Z,8.75
2022-12-18T07:12:31.458Z,9.08
2022-12-18T07:17:31.400Z,8.92
2022-12-18T07:22:31.388Z,8.92
2022-12-18T07:27:31.379Z,8.75
2022-12-18T07:32:31.364Z,8.75
2022-12-18T07:37:31.310Z,8.75
2022-12-18T07:42:31.309Z,8.86
2022-12-18T07:47:31.261Z,8.70
2022-12-18T07:52:31.260Z,9.08
2022-12-18T07:57:50.071Z,8.70
2022-12-18T08:02:31.299Z,8.92
2022-12-18T08:07:31.162Z,8.92
2022-12-18T08:12:31.161Z,8.86
2022-12-18T08:17:31.144Z,8.81
2022-12-18T08:22:31.143Z,9.02
2022-12-18T08:27:31.116Z,8.86
2022-12-18T08:32:31.079Z,8.75
2022-12-18T08:37:31.047Z,8.70
2022-12-18T08:42:32.893Z,8.81
2022-12-18T08:47:30.979Z,8.70
2022-12-18T08:52:30.978Z,8.75
2022-12-18T08:57:30.966Z,9.02
2022-12-18T09:02:31.115Z,8.75
2022-12-18T09:07:30.956Z,8.70
2022-12-18T09:12:30.885Z,8.86
2022-12-18T09:17:30.867Z,8.92
2022-12-18T09:22:30.785Z,8.86
2022-12-18T09:27:30.752Z,9.08
2022-12-18T09:32:30.693Z,8.86
2022-12-18T09:37:30.653Z,8.70
2022-12-18T09:42:30.617Z,8.70
2022-12-18T09:47:30.565Z,8.75
2022-12-18T09:52:30.527Z,8.81
2022-12-18T09:57:30.501Z,8.86
2022-12-18T10:02:30.541Z,8.70
2022-12-18T10:07:30.438Z,8.70
2022-12-18T10:12:30.427Z,8.92
2022-12-18T10:17:30.378Z,8.86
2022-12-18T10:22:30.334Z,8.75
2022-12-18T10:27:30.334Z,8.75
2022-12-18T10:32:30.312Z,8.75
2022-12-18T10:37:30.317Z,8.75
2022-12-18T10:42:30.255Z,8.70
2022-12-18T10:47:30.270Z,8.75
2022-12-18T10:52:30.204Z,8.92
2022-12-18T10:57:30.199Z,8.75
2022-12-18T11:02:30.361Z,8.86
2022-12-18T11:07:30.175Z,8.86
2022-12-18T11:12:30.138Z,8.86
2022-12-18T11:17:30.134Z,8.81
2022-12-18T11:22:30.161Z,8.86
2022-12-18T11:27:30.131Z,8.75
2022-12-18T11:32:30.111Z,8.86
2022-12-18T11:37:30.071Z,8.70
2022-12-18T11:42:30.027Z,8.92
2022-12-18T11:47:29.986Z,8.81
2022-12-18T11:52:29.935Z,8.70
2022-12-18T11:57:29.953Z,8.92
2022-12-18T12:02:30.067Z,8.75
2022-12-18T12:07:29.923Z,8.86
2022-12-18T12:12:29.899Z,8.70
2022-12-18T12:17:29.875Z,8.86
2022-12-18T12:22:29.826Z,8.92
2022-12-18T12:27:29.804Z,8.86
2022-12-18T12:32:31.373Z,8.92
2022-12-18T12:37:29.738Z,8.75
2022-12-18T12:42:29.716Z,8.75
2022-12-18T12:47:29.698Z,8.86
2022-12-18T12:52:29.648Z,8.86
2022-12-18T12:57:29.622Z,8.92
2022-12-18T13:02:29.658Z,8.92
2022-12-18T13:07:29.607Z,8.70
2022-12-18T13:12:29.509Z,8.70
2022-12-18T13:17:29.491Z,8.86
2022-12-18T13:22:29.441Z,8.70
2022-12-18T13:27:29.430Z,8.70
2022-12-18T13:32:29.374Z,8.81
2022-12-18T13:37:29.404Z,8.65
2022-12-18T13:42:29.351Z,8.81
2022-12-18T13:47:29.319Z,8.92
2022-12-18T13:52:29.272Z,8.92
2022-12-18T13:57:29.283Z,8.75
2022-12-18T14:02:29.396Z,8.75
2022-12-18T14:07:30.847Z,8.81
2022-12-18T14:12:29.175Z,8.86
2022-12-18T14:17:29.135Z,8.81
2022-12-18T14:22:29.082Z,8.81
2022-12-18T14:27:29.052Z,8.70
2022-12-18T14:32:29.002Z,8.86
2022-12-18T14:37:30.608Z,8.86
2022-12-18T14:42:29.250Z,8.81
2022-12-18T14:47:28.949Z,8.75
2022-12-18T14:52:28.926Z,8.86
2022-12-18T14:57:28.909Z,8.86
2022-12-18T15:02:29.254Z,8.70
2022-12-18T15:07:28.830Z,8.86
2022-12-18T15:12:28.821Z,8.75
2022-12-18T15:17:28.786Z,8.65
2022-12-18T15:22:28.749Z,8.92
2022-12-18T15:27:28.786Z,8.81
2022-12-18T15:32:28.738Z,8.49
2022-12-18T15:37:28.647Z,8.86
2022-12-18T15:42:28.613Z,8.86
2022-12-18T15:47:28.589Z,8.70
2022-12-18T15:52:28.553Z,8.81
2022-12-18T15:57:28.531Z,8.75
2022-12-18T16:02:28.719Z,8.70
2022-12-18T16:07:30.799Z,8.70
2022-12-18T16:12:28.408Z,8.75
2022-12-18T16:17:28.391Z,8.70
2022-12-18T16:22:28.361Z,8.92
2022-12-18T16:27:28.363Z,8.81
2022-12-18T16:32:28.340Z,8.75
2022-12-18T16:37:28.324Z,8.75
2022-12-18T16:42:28.279Z,8.92
2022-12-18T16:47:28.246Z,8.70
2022-12-18T16:52:28.211Z,8.86
2022-12-18T16:57:28.175Z,8.59
2022-12-18T17:02:28.471Z,8.86
2022-12-18T17:07:28.141Z,8.86
2022-12-18T17:12:28.076Z,8.70
2022-12-18T17:17:28.083Z,8.81
2022-12-18T17:22:28.067Z,8.54
2022-12-18T17:27:28.043Z,8.59
2022-12-18T17:32:28.035Z,8.75
2022-12-18T17:37:28.002Z,8.81
2022-12-18T17:42:27.974Z,8.54
2022-12-18T17:47:27.967Z,8.65
2022-12-18T17:52:27.918Z,8.54
2022-12-18T17:57:27.889Z,8.86
2022-12-18T18:02:27.999Z,8.75
2022-12-18T18:07:27.848Z,8.70
2022-12-18T18:12:27.822Z,8.75
2022-12-18T18:17:27.784Z,8.54
2022-12-18T18:22:27.750Z,8.75
2022-12-18T18:27:27.730Z,8.86
2022-12-18T18:32:27.691Z,8.86
2022-12-18T18:37:27.709Z,8.70
2022-12-18T18:42:27.659Z,8.75
2022-12-18T18:47:27.623Z,8.70
2022-12-18T18:52:27.613Z,8.54
2022-12-18T18:57:30.520Z,8.54
2022-12-18T19:02:27.627Z,8.70
2022-12-18T19:07:30.142Z,8.54
2022-12-18T19:12:27.550Z,8.81
2022-12-18T19:17:30.686Z,8.65
2022-12-18T19:22:27.432Z,8.65
2022-12-18T19:27:27.408Z,8.70
2022-12-18T19:32:27.470Z,8.49
2022-12-18T19:37:27.365Z,8.86
2022-12-18T19:42:34.820Z,8.70
2022-12-18T19:47:27.354Z,8.70
2022-12-18T19:52:27.323Z,8.86
2022-12-18T19:57:27.313Z,8.70
2022-12-18T20:02:28.300Z,8.49
2022-12-18T20:07:27.280Z,8.65
2022-12-18T20:12:27.240Z,8.70
2022-12-18T20:17:27.219Z,8.86
2022-12-18T20:22:27.176Z,8.49
2022-12-18T20:27:27.155Z,8.65
2022-12-18T20:32:29.599Z,8.54
2022-12-18T20:37:27.341Z,8.86
2022-12-18T20:42:27.092Z,8.49
2022-12-18T20:47:27.095Z,8.54
2022-12-18T20:52:27.028Z,8.54
2022-12-18T20:57:27.044Z,8.54
2022-12-18T21:02:27.260Z,8.75
2022-12-18T21:07:26.963Z,8.65
2022-12-18T21:12:26.940Z,8.54
2022-12-18T21:17:26.904Z,8.65
2022-12-18T21:22:26.863Z,8.65
2022-12-18T21:27:26.836Z,8.65
2022-12-18T21:32:26.801Z,8.49
2022-12-18T21:37:26.792Z,8.49
2022-12-18T21:42:26.759Z,8.65
2022-12-18T21:47:26.747Z,8.49
2022-12-18T21:52:32.562Z,8.49
2022-12-18T21:57:26.707Z,8.49
2022-12-18T22:02:26.956Z,8.49
2022-12-18T22:07:26.646Z,8.49
2022-12-18T22:12:26.622Z,8.54
2022-12-18T22:17:26.599Z,8.70
2022-12-18T22:22:26.564Z,8.70
2022-12-18T22:27:26.539Z,8.75
2022-12-18T22:32:30.919Z,8.65
2022-12-18T22:37:26.502Z,8.65
2022-12-18T22:42:26.465Z,8.70
2022-12-18T22:47:29.748Z,8.70
2022-12-18T22:52:26.413Z,8.65
2022-12-18T22:57:26.383Z,8.49
2022-12-18T23:02:26.517Z,8.70
2022-12-18T23:07:26.330Z,8.54
2022-12-18T23:12:26.290Z,8.70
2022-12-18T23:17:26.265Z,8.59
2022-12-18T23:22:26.239Z,8.54
2022-12-18T23:27:26.210Z,8.59
2022-12-18T23:32:26.169Z,8.65
2022-12-18T23:37:50.303Z,8.54
2022-12-18T23:42:26.146Z,8.54
2022-12-18T23:47:26.124Z,8.54
2022-12-18T23:52:26.092Z,8.54
2022-12-18T23:57:26.061Z,8.75
